sensor_id;sensor_type;location;lat;lon;timestamp;temperature;humidity
42913;DHT22;50720;54.324;18.558;2022-09-09T00:02:08;14.30;99.90
42913;DHT22;50720;54.324;18.558;2022-09-09T00:04:41;14.30;99.90
42913;DHT22;50720;54.324;18.558;2022-09-09T00:07:18;14.30;99.90
42913;DHT22;50720;54.324;18.558;2022-09-09T00:09:59;14.40;99.90
42913;DHT22;50720;54.324;18.558;2022-09-09T00:12:37;14.30;99.90
42913;DHT22;50720;54.324;18.558;2022-09-09T00:15:13;14.30;99.90
42913;DHT22;50720;54.324;18.558;2022-09-09T00:17:47;14.30;99.90
42913;DHT22;50720;54.324;18.558;2022-09-09T00:20:23;14.20;99.90
42913;DHT22;50720;54.324;18.558;2022-09-09T00:22:57;14.20;99.90
42913;DHT22;50720;54.324;18.558;2022-09-09T00:25:33;14.30;99.90
42913;DHT22;50720;54.324;18.558;2022-09-09T00:28:10;14.30;99.90
42913;DHT22;50720;54.324;18.558;2022-09-09T00:30:42;14.30;99.90
42913;DHT22;50720;54.324;18.558;2022-09-09T00:33:13;14.20;99.90
42913;DHT22;50720;54.324;18.558;2022-09-09T00:35:46;14.20;99.90
42913;DHT22;50720;54.324;18.558;2022-09-09T00:38:19;14.10;99.90
42913;DHT22;50720;54.324;18.558;2022-09-09T00:40:57;14.10;99.90
42913;DHT22;50720;54.324;18.558;2022-09-09T00:43:30;14.00;99.90
42913;DHT22;50720;54.324;18.558;2022-09-09T00:46:16;14.00;99.90
42913;DHT22;50720;54.324;18.558;2022-09-09T00:48:58;13.90;99.90
42913;DHT22;50720;54.324;18.558;2022-09-09T00:51:36;14.00;99.90
42913;DHT22;50720;54.324;18.558;2022-09-09T00:54:20;14.00;99.90
42913;DHT22;50720;54.324;18.558;2022-09-09T00:59:52;14.10;99.90
42913;DHT22;50720;54.324;18.558;2022-09-09T01:02:31;14.00;99.90
42913;DHT22;50720;54.324;18.558;2022-09-09T01:05:07;14.10;99.90
42913;DHT22;50720;54.324;18.558;2022-09-09T01:07:44;14.10;99.90
42913;DHT22;50720;54.324;18.558;2022-09-09T01:10:27;14.20;99.90
42913;DHT22;50720;54.324;18.558;2022-09-09T01:13:01;14.10;99.90
42913;DHT22;50720;54.324;18.558;2022-09-09T01:15:34;14.20;99.90
42913;DHT22;50720;54.324;18.558;2022-09-09T01:18:06;14.10;99.90
42913;DHT22;50720;54.324;18.558;2022-09-09T01:20:42;14.10;99.90
42913;DHT22;50720;54.324;18.558;2022-09-09T01:23:28;14.10;99.90
42913;DHT22;50720;54.324;18.558;2022-09-09T01:26:12;14.10;99.90
42913;DHT22;50720;54.324;18.558;2022-09-09T01:28:46;14.00;99.90
42913;DHT22;50720;54.324;18.558;2022-09-09T01:31:19;14.00;99.90
42913;DHT22;50720;54.324;18.558;2022-09-09T01:33:50;14.10;99.90
42913;DHT22;50720;54.324;18.558;2022-09-09T01:36:26;14.10;99.90
42913;DHT22;50720;54.324;18.558;2022-09-09T01:38:57;14.10;99.90
42913;DHT22;50720;54.324;18.558;2022-09-09T01:41:28;14.10;99.90
42913;DHT22;50720;54.324;18.558;2022-09-09T01:43:58;14.10;99.90
42913;DHT22;50720;54.324;18.558;2022-09-09T01:46:28;14.00;99.90
42913;DHT22;50720;54.324;18.558;2022-09-09T01:48:58;14.00;99.90
42913;DHT22;50720;54.324;18.558;2022-09-09T01:51:29;14.10;99.90
42913;DHT22;50720;54.324;18.558;2022-09-09T01:53:58;14.00;99.90
42913;DHT22;50720;54.324;18.558;2022-09-09T01:56:40;14.00;99.90
42913;DHT22;50720;54.324;18.558;2022-09-09T01:59:21;14.00;99.90
42913;DHT22;50720;54.324;18.558;2022-09-09T02:02:06;14.00;99.90
42913;DHT22;50720;54.324;18.558;2022-09-09T02:04:40;14.10;99.90
42913;DHT22;50720;54.324;18.558;2022-09-09T02:07:26;14.00;99.90
42913;DHT22;50720;54.324;18.558;2022-09-09T02:10:02;14.00;99.90
42913;DHT22;50720;54.324;18.558;2022-09-09T02:12:37;14.10;99.90
42913;DHT22;50720;54.324;18.558;2022-09-09T02:15:18;14.10;99.90
42913;DHT22;50720;54.324;18.558;2022-09-09T02:17:52;14.10;99.90
42913;DHT22;50720;54.324;18.558;2022-09-09T02:20:24;14.10;99.90
42913;DHT22;50720;54.324;18.558;2022-09-09T02:22:59;14.10;99.90
42913;DHT22;50720;54.324;18.558;2022-09-09T02:25:30;14.10;99.90
42913;DHT22;50720;54.324;18.558;2022-09-09T02:28:02;14.10;99.90
42913;DHT22;50720;54.324;18.558;2022-09-09T02:30:34;14.10;99.90
42913;DHT22;50720;54.324;18.558;2022-09-09T02:33:05;14.10;99.90
42913;DHT22;50720;54.324;18.558;2022-09-09T02:35:36;14.10;99.90
42913;DHT22;50720;54.324;18.558;2022-09-09T02:38:10;14.10;99.90
42913;DHT22;50720;54.324;18.558;2022-09-09T02:40:41;14.10;99.90
42913;DHT22;50720;54.324;18.558;2022-09-09T02:43:14;14.00;99.90
42913;DHT22;50720;54.324;18.558;2022-09-09T02:45:50;14.00;99.90
42913;DHT22;50720;54.324;18.558;2022-09-09T02:48:28;14.00;99.90
42913;DHT22;50720;54.324;18.558;2022-09-09T02:51:04;14.00;99.90
42913;DHT22;50720;54.324;18.558;2022-09-09T02:53:42;13.90;99.90
42913;DHT22;50720;54.324;18.558;2022-09-09T02:56:16;13.90;99.90
42913;DHT22;50720;54.324;18.558;2022-09-09T02:58:47;13.90;99.90
42913;DHT22;50720;54.324;18.558;2022-09-09T03:01:20;13.90;99.90
42913;DHT22;50720;54.324;18.558;2022-09-09T03:03:49;13.90;99.90
42913;DHT22;50720;54.324;18.558;2022-09-09T03:06:19;13.80;99.90
42913;DHT22;50720;54.324;18.558;2022-09-09T03:08:48;13.80;99.90
42913;DHT22;50720;54.324;18.558;2022-09-09T03:11:18;13.80;99.90
42913;DHT22;50720;54.324;18.558;2022-09-09T03:13:48;13.70;99.90
42913;DHT22;50720;54.324;18.558;2022-09-09T03:16:18;13.70;99.90
42913;DHT22;50720;54.324;18.558;2022-09-09T03:18:48;13.60;99.90
42913;DHT22;50720;54.324;18.558;2022-09-09T03:21:18;13.50;99.90
42913;DHT22;50720;54.324;18.558;2022-09-09T03:23:48;13.30;99.90
42913;DHT22;50720;54.324;18.558;2022-09-09T03:26:17;13.20;99.90
42913;DHT22;50720;54.324;18.558;2022-09-09T03:28:49;12.80;99.90
42913;DHT22;50720;54.324;18.558;2022-09-09T03:31:19;12.60;99.90
42913;DHT22;50720;54.324;18.558;2022-09-09T03:33:49;12.50;99.90
42913;DHT22;50720;54.324;18.558;2022-09-09T03:36:18;12.40;99.90
42913;DHT22;50720;54.324;18.558;2022-09-09T03:38:48;12.20;99.90
42913;DHT22;50720;54.324;18.558;2022-09-09T03:41:18;12.20;99.90
42913;DHT22;50720;54.324;18.558;2022-09-09T03:43:50;12.10;99.90
42913;DHT22;50720;54.324;18.558;2022-09-09T03:46:22;12.10;99.90
42913;DHT22;50720;54.324;18.558;2022-09-09T03:48:52;12.00;99.90
42913;DHT22;50720;54.324;18.558;2022-09-09T03:51:22;11.90;99.90
42913;DHT22;50720;54.324;18.558;2022-09-09T03:53:52;11.80;99.90
42913;DHT22;50720;54.324;18.558;2022-09-09T03:56:26;11.80;99.90
42913;DHT22;50720;54.324;18.558;2022-09-09T03:58:56;11.80;99.90
42913;DHT22;50720;54.324;18.558;2022-09-09T04:01:26;11.70;99.90
42913;DHT22;50720;54.324;18.558;2022-09-09T04:03:56;11.70;99.90
42913;DHT22;50720;54.324;18.558;2022-09-09T04:06:26;11.60;99.90
42913;DHT22;50720;54.324;18.558;2022-09-09T04:08:55;11.60;99.90
42913;DHT22;50720;54.324;18.558;2022-09-09T04:11:25;11.60;99.90
42913;DHT22;50720;54.324;18.558;2022-09-09T04:13:56;11.50;99.90
42913;DHT22;50720;54.324;18.558;2022-09-09T04:16:26;11.50;99.90
42913;DHT22;50720;54.324;18.558;2022-09-09T04:18:55;11.50;99.90
42913;DHT22;50720;54.324;18.558;2022-09-09T04:21:25;11.50;99.90
42913;DHT22;50720;54.324;18.558;2022-09-09T04:23:55;11.40;99.90
42913;DHT22;50720;54.324;18.558;2022-09-09T04:26:24;11.50;99.90
42913;DHT22;50720;54.324;18.558;2022-09-09T04:28:55;11.50;99.90
42913;DHT22;50720;54.324;18.558;2022-09-09T04:31:26;11.50;99.90
42913;DHT22;50720;54.324;18.558;2022-09-09T04:33:56;11.50;99.90
42913;DHT22;50720;54.324;18.558;2022-09-09T04:36:25;11.50;99.90
42913;DHT22;50720;54.324;18.558;2022-09-09T04:38:55;11.50;99.90
42913;DHT22;50720;54.324;18.558;2022-09-09T04:41:24;11.50;99.90
42913;DHT22;50720;54.324;18.558;2022-09-09T04:43:54;11.50;99.90
42913;DHT22;50720;54.324;18.558;2022-09-09T04:46:25;11.50;99.90
42913;DHT22;50720;54.324;18.558;2022-09-09T04:48:54;11.40;99.90
42913;DHT22;50720;54.324;18.558;2022-09-09T04:51:23;11.50;99.90
42913;DHT22;50720;54.324;18.558;2022-09-09T04:53:53;11.50;99.90
42913;DHT22;50720;54.324;18.558;2022-09-09T04:56:22;11.50;99.90
42913;DHT22;50720;54.324;18.558;2022-09-09T04:58:54;11.50;99.90
42913;DHT22;50720;54.324;18.558;2022-09-09T05:01:25;11.40;99.90
42913;DHT22;50720;54.324;18.558;2022-09-09T05:03:56;11.40;99.90
42913;DHT22;50720;54.324;18.558;2022-09-09T05:06:25;11.40;99.90
42913;DHT22;50720;54.324;18.558;2022-09-09T05:08:54;11.40;99.90
42913;DHT22;50720;54.324;18.558;2022-09-09T05:11:26;11.40;99.90
42913;DHT22;50720;54.324;18.558;2022-09-09T05:13:56;11.30;99.90
42913;DHT22;50720;54.324;18.558;2022-09-09T05:16:27;11.30;99.90
42913;DHT22;50720;54.324;18.558;2022-09-09T05:18:57;11.30;99.90
42913;DHT22;50720;54.324;18.558;2022-09-09T05:21:27;11.30;99.90
42913;DHT22;50720;54.324;18.558;2022-09-09T05:23:58;11.30;99.90
42913;DHT22;50720;54.324;18.558;2022-09-09T05:26:29;11.30;99.90
42913;DHT22;50720;54.324;18.558;2022-09-09T05:29:00;11.30;99.90
42913;DHT22;50720;54.324;18.558;2022-09-09T05:31:31;11.30;99.90
42913;DHT22;50720;54.324;18.558;2022-09-09T05:34:01;11.30;99.90
42913;DHT22;50720;54.324;18.558;2022-09-09T05:36:30;11.30;99.90
42913;DHT22;50720;54.324;18.558;2022-09-09T05:39:00;11.30;99.90
42913;DHT22;50720;54.324;18.558;2022-09-09T05:41:29;11.30;99.90
42913;DHT22;50720;54.324;18.558;2022-09-09T05:43:59;11.30;99.90
42913;DHT22;50720;54.324;18.558;2022-09-09T05:46:29;11.30;99.90
42913;DHT22;50720;54.324;18.558;2022-09-09T05:49:00;11.30;99.90
42913;DHT22;50720;54.324;18.558;2022-09-09T05:51:29;11.30;99.90
42913;DHT22;50720;54.324;18.558;2022-09-09T05:53:59;11.20;99.90
42913;DHT22;50720;54.324;18.558;2022-09-09T05:56:29;11.30;99.90
42913;DHT22;50720;54.324;18.558;2022-09-09T05:59:00;11.20;99.90
42913;DHT22;50720;54.324;18.558;2022-09-09T06:01:31;11.20;99.90
42913;DHT22;50720;54.324;18.558;2022-09-09T06:04:04;11.20;99.90
42913;DHT22;50720;54.324;18.558;2022-09-09T06:06:35;11.20;99.90
42913;DHT22;50720;54.324;18.558;2022-09-09T06:09:07;11.20;99.90
42913;DHT22;50720;54.324;18.558;2022-09-09T06:11:38;11.10;99.90
42913;DHT22;50720;54.324;18.558;2022-09-09T06:14:09;11.10;99.90
42913;DHT22;50720;54.324;18.558;2022-09-09T06:16:38;11.00;99.90
42913;DHT22;50720;54.324;18.558;2022-09-09T06:19:13;11.00;99.90
42913;DHT22;50720;54.324;18.558;2022-09-09T06:21:43;11.00;99.90
42913;DHT22;50720;54.324;18.558;2022-09-09T06:24:12;11.00;99.90
42913;DHT22;50720;54.324;18.558;2022-09-09T06:26:44;11.00;99.90
42913;DHT22;50720;54.324;18.558;2022-09-09T06:29:14;10.90;99.90
42913;DHT22;50720;54.324;18.558;2022-09-09T06:31:44;10.90;99.90
42913;DHT22;50720;54.324;18.558;2022-09-09T06:34:15;10.90;99.90
42913;DHT22;50720;54.324;18.558;2022-09-09T06:36:47;11.00;99.90
42913;DHT22;50720;54.324;18.558;2022-09-09T06:39:16;11.00;99.90
42913;DHT22;50720;54.324;18.558;2022-09-09T06:41:46;11.00;99.90
42913;DHT22;50720;54.324;18.558;2022-09-09T06:44:16;10.90;99.90
42913;DHT22;50720;54.324;18.558;2022-09-09T06:46:45;11.00;99.90
42913;DHT22;50720;54.324;18.558;2022-09-09T06:49:17;10.90;99.90
42913;DHT22;50720;54.324;18.558;2022-09-09T06:51:46;10.90;99.90
42913;DHT22;50720;54.324;18.558;2022-09-09T06:54:17;11.00;99.90
42913;DHT22;50720;54.324;18.558;2022-09-09T06:56:47;10.90;99.90
42913;DHT22;50720;54.324;18.558;2022-09-09T06:59:17;10.90;99.90
42913;DHT22;50720;54.324;18.558;2022-09-09T07:01:47;10.80;99.90
42913;DHT22;50720;54.324;18.558;2022-09-09T07:04:23;10.90;99.90
42913;DHT22;50720;54.324;18.558;2022-09-09T07:06:53;10.90;99.90
42913;DHT22;50720;54.324;18.558;2022-09-09T07:09:23;10.90;99.90
42913;DHT22;50720;54.324;18.558;2022-09-09T07:11:52;10.90;99.90
42913;DHT22;50720;54.324;18.558;2022-09-09T07:14:22;10.90;99.90
42913;DHT22;50720;54.324;18.558;2022-09-09T07:16:51;10.70;99.90
42913;DHT22;50720;54.324;18.558;2022-09-09T07:19:28;10.70;99.90
42913;DHT22;50720;54.324;18.558;2022-09-09T07:21:57;10.70;99.90
42913;DHT22;50720;54.324;18.558;2022-09-09T07:24:27;10.80;99.90
42913;DHT22;50720;54.324;18.558;2022-09-09T07:26:58;10.90;99.90
42913;DHT22;50720;54.324;18.558;2022-09-09T07:29:27;10.80;99.90
42913;DHT22;50720;54.324;18.558;2022-09-09T07:31:57;10.90;99.90
42913;DHT22;50720;54.324;18.558;2022-09-09T07:34:28;10.90;99.90
42913;DHT22;50720;54.324;18.558;2022-09-09T07:36:58;10.90;99.90
42913;DHT22;50720;54.324;18.558;2022-09-09T07:39:27;10.80;99.90
42913;DHT22;50720;54.324;18.558;2022-09-09T07:41:57;10.80;99.90
42913;DHT22;50720;54.324;18.558;2022-09-09T07:44:26;10.80;99.90
42913;DHT22;50720;54.324;18.558;2022-09-09T07:46:56;10.90;99.90
42913;DHT22;50720;54.324;18.558;2022-09-09T07:49:27;10.90;99.90
42913;DHT22;50720;54.324;18.558;2022-09-09T07:51:59;11.00;99.90
42913;DHT22;50720;54.324;18.558;2022-09-09T07:54:29;10.90;99.90
42913;DHT22;50720;54.324;18.558;2022-09-09T07:57:00;10.90;99.90
42913;DHT22;50720;54.324;18.558;2022-09-09T07:59:32;10.90;99.90
42913;DHT22;50720;54.324;18.558;2022-09-09T08:02:01;10.90;99.90
42913;DHT22;50720;54.324;18.558;2022-09-09T08:04:36;10.80;99.90
42913;DHT22;50720;54.324;18.558;2022-09-09T08:07:05;10.80;99.90
42913;DHT22;50720;54.324;18.558;2022-09-09T08:09:34;10.80;99.90
42913;DHT22;50720;54.324;18.558;2022-09-09T08:12:04;10.80;99.90
42913;DHT22;50720;54.324;18.558;2022-09-09T08:14:36;10.80;99.90
42913;DHT22;50720;54.324;18.558;2022-09-09T08:17:07;10.80;99.90
42913;DHT22;50720;54.324;18.558;2022-09-09T08:19:37;10.80;99.90
42913;DHT22;50720;54.324;18.558;2022-09-09T08:22:07;10.80;99.90
42913;DHT22;50720;54.324;18.558;2022-09-09T08:24:37;10.90;99.90
42913;DHT22;50720;54.324;18.558;2022-09-09T08:27:07;10.90;99.90
42913;DHT22;50720;54.324;18.558;2022-09-09T08:29:37;10.90;99.90
42913;DHT22;50720;54.324;18.558;2022-09-09T08:32:07;11.00;99.90
42913;DHT22;50720;54.324;18.558;2022-09-09T08:34:37;10.90;99.90
42913;DHT22;50720;54.324;18.558;2022-09-09T08:37:08;10.90;99.90
42913;DHT22;50720;54.324;18.558;2022-09-09T08:39:37;10.90;99.90
42913;DHT22;50720;54.324;18.558;2022-09-09T08:42:28;10.90;99.90
42913;DHT22;50720;54.324;18.558;2022-09-09T08:45:22;10.90;99.90
42913;DHT22;50720;54.324;18.558;2022-09-09T08:50:46;10.90;99.90
42913;DHT22;50720;54.324;18.558;2022-09-09T08:53:19;11.00;99.90
42913;DHT22;50720;54.324;18.558;2022-09-09T08:55:51;11.00;99.90
42913;DHT22;50720;54.324;18.558;2022-09-09T08:58:21;11.10;99.90
42913;DHT22;50720;54.324;18.558;2022-09-09T09:01:17;10.90;99.90
42913;DHT22;50720;54.324;18.558;2022-09-09T09:03:55;11.00;99.90
42913;DHT22;50720;54.324;18.558;2022-09-09T09:06:42;11.00;99.90
42913;DHT22;50720;54.324;18.558;2022-09-09T09:09:21;11.10;99.90
42913;DHT22;50720;54.324;18.558;2022-09-09T09:11:54;11.10;99.90
42913;DHT22;50720;54.324;18.558;2022-09-09T09:14:30;11.10;99.90
42913;DHT22;50720;54.324;18.558;2022-09-09T09:17:04;11.00;99.90
42913;DHT22;50720;54.324;18.558;2022-09-09T09:19:36;11.10;99.90
42913;DHT22;50720;54.324;18.558;2022-09-09T09:22:17;11.10;99.90
42913;DHT22;50720;54.324;18.558;2022-09-09T09:24:52;11.10;99.90
42913;DHT22;50720;54.324;18.558;2022-09-09T09:27:29;11.20;99.90
42913;DHT22;50720;54.324;18.558;2022-09-09T09:30:01;11.10;99.90
42913;DHT22;50720;54.324;18.558;2022-09-09T09:32:54;11.20;99.90
42913;DHT22;50720;54.324;18.558;2022-09-09T09:35:25;11.20;99.90
42913;DHT22;50720;54.324;18.558;2022-09-09T09:37:56;11.30;99.90
42913;DHT22;50720;54.324;18.558;2022-09-09T09:40:52;11.30;99.90
42913;DHT22;50720;54.324;18.558;2022-09-09T09:43:26;11.20;99.90
42913;DHT22;50720;54.324;18.558;2022-09-09T09:45:57;11.10;99.90
42913;DHT22;50720;54.324;18.558;2022-09-09T09:48:44;11.10;99.90
42913;DHT22;50720;54.324;18.558;2022-09-09T09:51:17;11.10;99.90
42913;DHT22;50720;54.324;18.558;2022-09-09T09:53:48;11.20;99.90
42913;DHT22;50720;54.324;18.558;2022-09-09T09:56:27;11.30;99.90
42913;DHT22;50720;54.324;18.558;2022-09-09T09:58:58;11.30;99.90
42913;DHT22;50720;54.324;18.558;2022-09-09T10:01:35;11.30;99.90
42913;DHT22;50720;54.324;18.558;2022-09-09T10:04:15;11.30;99.90
42913;DHT22;50720;54.324;18.558;2022-09-09T10:06:46;11.30;99.90
42913;DHT22;50720;54.324;18.558;2022-09-09T10:09:24;11.30;99.90
42913;DHT22;50720;54.324;18.558;2022-09-09T10:12:00;11.40;99.90
42913;DHT22;50720;54.324;18.558;2022-09-09T10:14:39;11.50;99.90
42913;DHT22;50720;54.324;18.558;2022-09-09T10:17:17;11.60;99.90
42913;DHT22;50720;54.324;18.558;2022-09-09T10:20:00;11.60;99.90
42913;DHT22;50720;54.324;18.558;2022-09-09T10:22:34;11.60;99.90
42913;DHT22;50720;54.324;18.558;2022-09-09T10:25:32;11.60;99.90
42913;DHT22;50720;54.324;18.558;2022-09-09T10:28:16;11.60;99.90
42913;DHT22;50720;54.324;18.558;2022-09-09T10:30:58;11.60;99.90
42913;DHT22;50720;54.324;18.558;2022-09-09T10:33:33;11.50;99.90
42913;DHT22;50720;54.324;18.558;2022-09-09T10:36:12;11.60;99.90
42913;DHT22;50720;54.324;18.558;2022-09-09T10:38:44;11.70;99.90
42913;DHT22;50720;54.324;18.558;2022-09-09T10:41:42;11.70;99.90
42913;DHT22;50720;54.324;18.558;2022-09-09T10:44:31;11.70;99.90
42913;DHT22;50720;54.324;18.558;2022-09-09T10:47:33;11.70;99.90
42913;DHT22;50720;54.324;18.558;2022-09-09T10:50:20;11.70;99.90
42913;DHT22;50720;54.324;18.558;2022-09-09T10:53:19;11.70;99.90
42913;DHT22;50720;54.324;18.558;2022-09-09T10:55:56;11.70;99.90
42913;DHT22;50720;54.324;18.558;2022-09-09T10:58:32;11.80;99.90
42913;DHT22;50720;54.324;18.558;2022-09-09T11:01:09;11.90;99.90
42913;DHT22;50720;54.324;18.558;2022-09-09T11:03:43;11.90;99.90
42913;DHT22;50720;54.324;18.558;2022-09-09T11:06:19;11.80;99.90
42913;DHT22;50720;54.324;18.558;2022-09-09T11:08:51;11.90;99.90
42913;DHT22;50720;54.324;18.558;2022-09-09T11:11:29;12.00;99.90
42913;DHT22;50720;54.324;18.558;2022-09-09T11:14:05;11.90;99.90
42913;DHT22;50720;54.324;18.558;2022-09-09T11:16:41;12.00;99.90
42913;DHT22;50720;54.324;18.558;2022-09-09T11:19:16;12.00;99.90
42913;DHT22;50720;54.324;18.558;2022-09-09T11:21:48;11.90;99.90
42913;DHT22;50720;54.324;18.558;2022-09-09T11:24:23;12.00;99.90
42913;DHT22;50720;54.324;18.558;2022-09-09T11:26:57;11.90;99.90
42913;DHT22;50720;54.324;18.558;2022-09-09T11:29:43;12.10;99.90
42913;DHT22;50720;54.324;18.558;2022-09-09T11:32:34;12.10;99.90
42913;DHT22;50720;54.324;18.558;2022-09-09T11:35:26;12.30;99.90
42913;DHT22;50720;54.324;18.558;2022-09-09T11:38:21;12.30;99.90
42913;DHT22;50720;54.324;18.558;2022-09-09T11:41:00;12.20;99.90
42913;DHT22;50720;54.324;18.558;2022-09-09T11:43:32;12.30;99.90
42913;DHT22;50720;54.324;18.558;2022-09-09T11:46:04;12.20;99.90
42913;DHT22;50720;54.324;18.558;2022-09-09T11:48:37;12.20;99.90
42913;DHT22;50720;54.324;18.558;2022-09-09T11:51:09;12.20;99.90
42913;DHT22;50720;54.324;18.558;2022-09-09T11:53:51;12.10;99.90
42913;DHT22;50720;54.324;18.558;2022-09-09T11:56:26;12.20;99.90
42913;DHT22;50720;54.324;18.558;2022-09-09T11:59:02;12.20;99.90
42913;DHT22;50720;54.324;18.558;2022-09-09T12:01:39;12.20;99.90
42913;DHT22;50720;54.324;18.558;2022-09-09T12:07:30;12.30;99.90
42913;DHT22;50720;54.324;18.558;2022-09-09T12:10:05;12.30;99.90
42913;DHT22;50720;54.324;18.558;2022-09-09T12:12:48;12.30;99.90
42913;DHT22;50720;54.324;18.558;2022-09-09T12:15:27;12.20;99.90
42913;DHT22;50720;54.324;18.558;2022-09-09T12:17:59;12.30;99.90
42913;DHT22;50720;54.324;18.558;2022-09-09T12:20:35;12.30;99.90
42913;DHT22;50720;54.324;18.558;2022-09-09T12:23:22;12.20;99.90
42913;DHT22;50720;54.324;18.558;2022-09-09T12:26:16;12.20;99.90
42913;DHT22;50720;54.324;18.558;2022-09-09T12:28:58;12.20;99.90
42913;DHT22;50720;54.324;18.558;2022-09-09T12:31:33;12.20;99.90
42913;DHT22;50720;54.324;18.558;2022-09-09T12:34:16;12.10;99.90
42913;DHT22;50720;54.324;18.558;2022-09-09T12:36:50;12.10;99.90
42913;DHT22;50720;54.324;18.558;2022-09-09T12:39:28;12.10;99.90
42913;DHT22;50720;54.324;18.558;2022-09-09T12:41:59;12.10;99.90
42913;DHT22;50720;54.324;18.558;2022-09-09T12:44:29;12.10;99.90
42913;DHT22;50720;54.324;18.558;2022-09-09T12:47:01;12.10;99.90
42913;DHT22;50720;54.324;18.558;2022-09-09T12:49:36;12.20;99.90
42913;DHT22;50720;54.324;18.558;2022-09-09T12:52:09;12.20;99.90
42913;DHT22;50720;54.324;18.558;2022-09-09T12:54:45;12.20;99.90
42913;DHT22;50720;54.324;18.558;2022-09-09T12:57:16;12.20;99.90
42913;DHT22;50720;54.324;18.558;2022-09-09T12:59:46;12.30;99.90
42913;DHT22;50720;54.324;18.558;2022-09-09T13:02:22;12.20;99.90
42913;DHT22;50720;54.324;18.558;2022-09-09T13:04:54;12.20;99.90
42913;DHT22;50720;54.324;18.558;2022-09-09T13:07:23;12.20;99.90
42913;DHT22;50720;54.324;18.558;2022-09-09T13:09:54;12.20;99.90
42913;DHT22;50720;54.324;18.558;2022-09-09T13:12:23;12.20;99.90
42913;DHT22;50720;54.324;18.558;2022-09-09T13:14:55;12.20;99.90
42913;DHT22;50720;54.324;18.558;2022-09-09T13:17:27;12.20;99.90
42913;DHT22;50720;54.324;18.558;2022-09-09T13:19:58;12.20;99.90
42913;DHT22;50720;54.324;18.558;2022-09-09T13:22:31;12.20;99.90
42913;DHT22;50720;54.324;18.558;2022-09-09T13:25:13;12.20;99.90
42913;DHT22;50720;54.324;18.558;2022-09-09T13:27:53;12.20;99.90
42913;DHT22;50720;54.324;18.558;2022-09-09T13:30:26;12.20;99.90
42913;DHT22;50720;54.324;18.558;2022-09-09T13:33:21;12.20;99.90
42913;DHT22;50720;54.324;18.558;2022-09-09T13:35:55;12.30;99.90
42913;DHT22;50720;54.324;18.558;2022-09-09T13:38:25;12.20;99.90
42913;DHT22;50720;54.324;18.558;2022-09-09T13:40:58;12.20;99.90
42913;DHT22;50720;54.324;18.558;2022-09-09T13:43:34;12.20;99.90
42913;DHT22;50720;54.324;18.558;2022-09-09T13:46:21;12.20;99.90
42913;DHT22;50720;54.324;18.558;2022-09-09T13:48:57;12.20;99.90
42913;DHT22;50720;54.324;18.558;2022-09-09T13:51:33;12.20;99.90
42913;DHT22;50720;54.324;18.558;2022-09-09T13:54:05;12.20;99.90
42913;DHT22;50720;54.324;18.558;2022-09-09T13:56:35;12.20;99.90
42913;DHT22;50720;54.324;18.558;2022-09-09T13:59:09;12.20;99.90
42913;DHT22;50720;54.324;18.558;2022-09-09T14:01:40;12.20;99.90
42913;DHT22;50720;54.324;18.558;2022-09-09T14:04:10;12.20;99.90
42913;DHT22;50720;54.324;18.558;2022-09-09T14:06:42;12.10;99.90
42913;DHT22;50720;54.324;18.558;2022-09-09T14:09:14;12.20;99.90
42913;DHT22;50720;54.324;18.558;2022-09-09T14:11:44;12.20;99.90
42913;DHT22;50720;54.324;18.558;2022-09-09T14:14:14;12.30;99.90
42913;DHT22;50720;54.324;18.558;2022-09-09T14:16:44;12.30;99.90
42913;DHT22;50720;54.324;18.558;2022-09-09T14:19:13;12.30;99.90
42913;DHT22;50720;54.324;18.558;2022-09-09T14:21:45;12.20;99.90
42913;DHT22;50720;54.324;18.558;2022-09-09T14:24:14;12.20;99.90
42913;DHT22;50720;54.324;18.558;2022-09-09T14:26:44;12.20;99.90
42913;DHT22;50720;54.324;18.558;2022-09-09T14:29:15;12.20;99.90
42913;DHT22;50720;54.324;18.558;2022-09-09T14:31:45;12.20;99.90
42913;DHT22;50720;54.324;18.558;2022-09-09T14:34:14;12.30;99.90
42913;DHT22;50720;54.324;18.558;2022-09-09T14:36:45;12.20;99.90
42913;DHT22;50720;54.324;18.558;2022-09-09T14:39:15;12.20;99.90
42913;DHT22;50720;54.324;18.558;2022-09-09T14:41:44;12.20;99.90
42913;DHT22;50720;54.324;18.558;2022-09-09T14:44:14;12.20;99.90
42913;DHT22;50720;54.324;18.558;2022-09-09T14:46:44;12.20;99.90
42913;DHT22;50720;54.324;18.558;2022-09-09T14:49:14;12.30;99.90
42913;DHT22;50720;54.324;18.558;2022-09-09T14:51:45;12.30;99.90
42913;DHT22;50720;54.324;18.558;2022-09-09T14:54:15;12.20;99.90
42913;DHT22;50720;54.324;18.558;2022-09-09T14:56:44;12.30;99.90
42913;DHT22;50720;54.324;18.558;2022-09-09T14:59:15;12.30;99.90
42913;DHT22;50720;54.324;18.558;2022-09-09T15:01:44;12.30;99.90
42913;DHT22;50720;54.324;18.558;2022-09-09T15:04:14;12.30;99.90
42913;DHT22;50720;54.324;18.558;2022-09-09T15:06:45;12.40;99.90
42913;DHT22;50720;54.324;18.558;2022-09-09T15:09:16;12.30;99.90
42913;DHT22;50720;54.324;18.558;2022-09-09T15:11:45;12.30;99.90
42913;DHT22;50720;54.324;18.558;2022-09-09T15:14:15;12.30;99.90
42913;DHT22;50720;54.324;18.558;2022-09-09T15:16:52;12.40;99.90
42913;DHT22;50720;54.324;18.558;2022-09-09T15:19:21;12.30;99.90
42913;DHT22;50720;54.324;18.558;2022-09-09T15:21:52;12.30;99.90
42913;DHT22;50720;54.324;18.558;2022-09-09T15:24:22;12.30;99.90
42913;DHT22;50720;54.324;18.558;2022-09-09T15:26:53;12.30;99.90
42913;DHT22;50720;54.324;18.558;2022-09-09T15:29:23;12.30;99.90
42913;DHT22;50720;54.324;18.558;2022-09-09T15:31:54;12.40;99.90
42913;DHT22;50720;54.324;18.558;2022-09-09T15:34:24;12.30;99.90
42913;DHT22;50720;54.324;18.558;2022-09-09T15:36:55;12.30;99.90
42913;DHT22;50720;54.324;18.558;2022-09-09T15:39:25;12.30;99.90
42913;DHT22;50720;54.324;18.558;2022-09-09T15:41:54;12.30;99.90
42913;DHT22;50720;54.324;18.558;2022-09-09T15:44:24;12.40;99.90
42913;DHT22;50720;54.324;18.558;2022-09-09T15:46:53;12.40;99.90
42913;DHT22;50720;54.324;18.558;2022-09-09T15:49:24;12.40;99.90
42913;DHT22;50720;54.324;18.558;2022-09-09T15:51:57;12.40;99.90
42913;DHT22;50720;54.324;18.558;2022-09-09T15:54:32;12.40;99.90
42913;DHT22;50720;54.324;18.558;2022-09-09T15:57:03;12.40;99.90
42913;DHT22;50720;54.324;18.558;2022-09-09T15:59:34;12.50;99.90
42913;DHT22;50720;54.324;18.558;2022-09-09T16:02:04;12.40;99.90
42913;DHT22;50720;54.324;18.558;2022-09-09T16:04:34;12.40;99.90